Time;durP1;ratioP1;P1;durP2;ratioP2;P2;SDS_P1;SDS_P2;PMS_P1;PMS_P2;Temp;Humidity;BMP_temperature;BMP_pressure;BME280_temperature;BME280_humidity;BME280_pressure;Samples;Min_cycle;Max_cycle;Signal;HPM_P1;HPM_P2
2022/04/19 00:00:53;;;;;;;6.70;4.82;;;;;;;8.75;53.17;99572.09;4332373;32;32301;-82
2022/04/19 00:03:25;;;;;;;5.82;4.07;;;;;;;8.52;54.02;99567.75;4356863;32;31984;-82
2022/04/19 00:05:53;;;;;;;9.00;5.35;;;;;;;8.72;53.48;99560.75;4346665;32;33473;-82
2022/04/19 00:08:27;;;;;;;6.00;5.15;;;;;;;8.52;53.88;99558.06;4344798;32;33901;-82
2022/04/19 00:10:54;;;;;;;;;;;;;;;8.51;53.88;99551.09;4335098;32;32557;-82
2022/04/19 00:13:22;;;;;;;9.13;5.55;;;;;;;8.21;54.66;99553.97;4349997;32;32049;-82
2022/04/19 00:15:50;;;;;;;7.85;5.90;;;;;;;8.40;54.11;99542.75;4340646;33;33672;-82
2022/04/19 00:18:19;;;;;;;7.62;5.87;;;;;;;8.35;54.45;99553.41;4337113;33;33052;-82
2022/04/19 00:20:47;;;;;;;8.95;5.43;;;;;;;8.42;54.35;99541.78;4350750;32;33769;-83
2022/04/19 00:23:16;;;;;;;8.98;5.18;;;;;;;8.46;54.17;99553.91;4336648;33;32674;-83
2022/04/19 00:25:49;;;;;;;8.60;5.87;;;;;;;8.40;54.12;99542.75;4334391;33;33566;-83
2022/04/19 00:28:18;;;;;;;8.98;5.30;;;;;;;8.54;53.64;99547.47;4325962;33;32857;-82
2022/04/19 00:30:47;;;;;;;7.28;4.85;;;;;;;8.60;53.27;99541.97;4353366;32;34278;-83
2022/04/19 00:33:15;;;;;;;6.80;5.35;;;;;;;8.32;53.90;99537.75;4341217;33;32444;-83
2022/04/19 00:35:43;;;;;;;7.05;5.35;;;;;;;8.33;53.98;99534.22;4339132;33;33116;-83
2022/04/19 00:38:11;;;;;;;9.93;5.03;;;;;;;8.58;53.28;99536.75;4351315;32;33989;-82
2022/04/19 00:40:39;;;;;;;7.78;5.20;;;;;;;8.28;54.26;99535.31;4338530;33;33273;-83
2022/04/19 00:43:08;;;;;;;8.32;4.90;;;;;;;8.29;54.24;99532.62;4342356;33;33301;-82
2022/04/19 00:45:35;;;;;;;10.25;5.47;;;;;;;8.33;54.23;99523.69;4337596;33;33441;-83
2022/04/19 00:48:03;;;;;;;6.93;4.93;;;;;;;8.23;54.54;99513.59;4339703;33;32693;-84
2022/04/19 00:50:33;;;;;;;7.47;5.50;;;;;;;8.16;54.66;99518.22;4340250;33;33525;-82
2022/04/19 00:53:02;;;;;;;8.52;5.22;;;;;;;8.16;54.90;99518.22;4352612;32;33205;-83
2022/04/19 00:55:31;;;;;;;9.00;6.00;;;;;;;7.96;55.62;99517.19;4349807;32;33817;-83
2022/04/19 00:58:01;;;;;;;8.27;6.37;;;;;;;7.91;55.61;99511.25;4346658;33;33480;-83
2022/04/19 01:00:29;;;;;;;8.77;5.40;;;;;;;7.81;55.73;99515.16;4335732;32;32976;-83
2022/04/19 01:02:58;;;;;;;7.20;5.45;;;;;;;8.02;54.99;99507.38;4339389;33;32686;-83
2022/04/19 01:05:33;;;;;;;10.45;5.80;;;;;;;8.06;54.92;99517.72;4353322;32;32414;-83
2022/04/19 01:08:01;;;;;;;9.90;5.60;;;;;;;7.92;55.44;99510.34;4338103;33;32885;-83
2022/04/19 01:10:30;;;;;;;9.65;6.37;;;;;;;7.92;55.62;99505.06;4339096;33;33117;-83
2022/04/19 01:13:17;;;;;;;8.60;5.87;;;;;;;8.20;54.89;99498.78;4356069;32;33359;-83
2022/04/19 01:15:50;;;;;;;8.20;5.32;;;;;;;8.09;55.06;99507.09;4343445;32;32931;-83
2022/04/19 01:18:22;;;;;;;12.48;6.60;;;;;;;8.04;55.38;99509.03;4355359;32;33997;-83
2022/04/19 01:20:56;;;;;;;9.52;5.37;;;;;;;8.02;55.66;99504.72;4356399;32;33215;-83
2022/04/19 01:23:32;;;;;;;10.00;6.47;;;;;;;8.11;55.35;99502.59;4333769;32;33775;-83
2022/04/19 01:26:00;;;;;;;9.05;5.60;;;;;;;8.00;55.72;99502.16;4359936;32;33693;-83
2022/04/19 01:28:30;;;;;;;7.18;5.37;;;;;;;8.06;55.61;99498.44;4343917;32;33649;-83
2022/04/19 01:30:59;;;;;;;7.43;5.40;;;;;;;8.10;55.55;99492.16;4354178;32;34465;-83
2022/04/19 01:33:28;;;;;;;10.35;5.20;;;;;;;8.03;55.74;99495.94;4354239;32;33432;-83
2022/04/19 01:35:57;;;;;;;6.35;4.50;;;;;;;8.11;55.17;99488.59;4352164;32;32745;-83
2022/04/19 01:38:25;;;;;;;9.27;5.37;;;;;;;8.15;55.14;99485.78;4353274;32;33055;-83
2022/04/19 01:40:53;;;;;;;7.00;5.45;;;;;;;7.96;55.57;99477.75;4353714;32;34013;-83
2022/04/19 01:43:23;;;;;;;8.52;4.87;;;;;;;8.10;55.15;99482.50;4345681;32;33515;-83
2022/04/19 01:45:53;;;;;;;8.88;5.68;;;;;;;8.20;54.66;99477.72;4354689;32;32446;-83
2022/04/19 01:48:20;;;;;;;7.82;4.90;;;;;;;8.23;54.54;99479.41;4341471;32;33258;-83
2022/04/19 01:50:48;;;;;;;6.15;4.95;;;;;;;8.08;55.18;99476.44;4344141;32;32751;-82
2022/04/19 01:53:16;;;;;;;7.62;4.87;;;;;;;8.39;54.29;99480.53;4355870;32;34047;-83
2022/04/19 01:55:44;;;;;;;6.45;5.00;;;;;;;8.05;55.22;99470.44;4356311;32;33619;-82
2022/04/19 01:58:14;;;;;;;10.10;4.97;;;;;;;7.96;55.85;99466.38;4357367;32;33919;-83
2022/04/19 02:00:42;;;;;;;7.12;4.55;;;;;;;8.31;54.91;99469.41;4355242;32;32736;-82
2022/04/19 02:03:10;;;;;;;7.53;4.93;;;;;;;8.30;54.77;99468.56;4346383;32;33896;-83
2022/04/19 02:05:38;;;;;;;8.23;5.00;;;;;;;8.30;54.80;99467.69;4356810;32;34722;-82
2022/04/19 02:08:06;;;;;;;7.03;4.22;;;;;;;8.20;54.98;99461.94;4344123;32;32765;-83
2022/04/19 02:10:36;;;;;;;5.90;3.95;;;;;;;8.39;54.52;99462.09;4330778;32;34074;-82
2022/04/19 02:13:03;;;;;;;11.32;4.40;;;;;;;8.45;54.44;99462.75;4344736;32;33904;-82
2022/04/19 02:15:36;;;;;;;6.70;4.68;;;;;;;8.26;54.98;99459.09;4350504;32;33156;-82
2022/04/19 02:18:06;;;;;;;8.52;4.93;;;;;;;8.27;54.88;99458.19;4362433;32;33710;-82
2022/04/19 02:20:34;;;;;;;5.50;4.05;;;;;;;8.61;53.92;99451.59;4344567;32;34529;-82
2022/04/19 02:23:02;;;;;;;7.82;5.15;;;;;;;8.57;53.95;99460.50;4329413;32;32651;-82
2022/04/19 02:25:30;;;;;;;5.93;4.70;;;;;;;8.20;55.26;99456.69;4343899;32;33860;-82
2022/04/19 02:27:59;;;;;;;6.05;4.70;;;;;;;8.20;55.45;99459.31;4352202;32;33912;-82
2022/04/19 02:30:28;;;;;;;7.75;5.12;;;;;;;8.15;55.69;99453.38;4368367;32;34118;-82
2022/04/19 02:33:02;;;;;;;8.90;5.65;;;;;;;8.19;55.63;99450.56;4342251;32;32551;-83
2022/04/19 02:35:31;;;;;;;9.75;5.32;;;;;;;8.13;55.52;99453.47;4355817;32;34850;-82
2022/04/19 02:38:00;;;;;;;6.62;4.57;;;;;;;8.09;55.49;99451.84;4355869;32;34411;-83
2022/04/19 02:40:29;;;;;;;6.85;4.90;;;;;;;8.02;55.68;99455.62;4350534;32;33962;-82
2022/04/19 02:42:57;;;;;;;8.63;4.93;;;;;;;7.92;55.70;99449.88;4342939;32;32203;-82
2022/04/19 02:45:26;;;;;;;9.30;5.07;;;;;;;7.96;55.54;99448.84;4357524;32;34014;-82
2022/04/19 02:48:07;;;;;;;7.07;5.10;;;;;;;7.77;56.24;99442.56;4343747;32;32834;-82
2022/04/19 02:50:44;;;;;;;8.93;4.82;;;;;;;8.06;55.42;99443.22;4353196;32;34265;-82
2022/04/19 02:53:14;;;;;;;8.05;5.07;;;;;;;8.03;55.53;99448.62;4360233;32;32032;-83
2022/04/19 02:55:42;;;;;;;6.97;4.95;;;;;;;7.95;55.69;99447.13;4356756;32;33618;-83
2022/04/19 02:58:10;;;;;;;11.55;5.50;;;;;;;7.94;55.67;99449.84;4336082;32;33050;-83
2022/04/19 03:00:39;;;;;;;9.20;5.53;;;;;;;7.96;55.43;99456.72;4332462;32;32929;-82
2022/04/19 03:03:09;;;;;;;7.65;4.70;;;;;;;8.05;55.14;99457.31;4345132;32;32313;-82
2022/04/19 03:05:40;;;;;;;9.30;5.12;;;;;;;8.21;54.97;99461.03;4325542;32;34351;-83
2022/04/19 03:08:09;;;;;;;7.47;4.87;;;;;;;7.71;56.46;99466.47;4342098;32;33509;-82
2022/04/19 03:10:36;;;;;;;8.40;5.20;;;;;;;7.78;56.31;99459.19;4345093;32;33891;-82
2022/04/19 03:13:05;;;;;;;7.50;5.57;;;;;;;7.79;56.00;99461.78;4343802;32;32639;-84
2022/04/19 03:15:36;;;;;;;6.55;4.90;;;;;;;7.62;56.21;99464.19;4356820;32;34173;-84
2022/04/19 03:18:05;;;;;;;10.57;5.40;;;;;;;7.53;56.33;99459.25;4342998;32;33213;-84
2022/04/19 03:20:33;;;;;;;7.90;5.40;;;;;;;7.48;56.67;99458.56;4356497;32;34099;-84
2022/04/19 03:28:35;;;;;;;10.82;5.12;;;;;;;7.48;56.40;99456.81;4351236;32;33561;-84
2022/04/19 03:31:02;;;;;;;8.27;4.30;;;;;;;7.36;56.66;99454.63;4336735;32;32573;-83
2022/04/19 03:33:32;;;;;;;8.48;3.85;;;;;;;7.53;56.14;99451.38;4353532;32;34233;-84
2022/04/19 03:36:00;;;;;;;6.80;4.20;;;;;;;7.44;56.38;99449.94;4343030;32;34369;-83
2022/04/19 03:38:27;;;;;;;8.30;4.57;;;;;;;7.33;56.37;99452.97;4353561;32;32459;-84
2022/04/19 03:40:57;;;;;;;8.38;4.72;;;;;;;7.31;56.28;99449.56;4349020;32;33920;-83
2022/04/19 03:43:25;;;;;;;5.12;3.83;;;;;;;7.24;56.46;99453.28;4355568;32;33454;-84
2022/04/19 03:45:53;;;;;;;6.12;4.60;;;;;;;7.30;56.30;99447.81;4343318;32;33733;-84
2022/04/19 03:48:22;;;;;;;5.90;4.07;;;;;;;7.26;56.20;99443.56;4354865;32;34528;-84
2022/04/19 03:50:56;;;;;;;8.32;4.62;;;;;;;7.18;56.27;99443.00;4356579;32;33998;-84
2022/04/19 03:53:30;;;;;;;8.25;4.70;;;;;;;7.12;56.46;99443.22;4342216;32;32385;-84
2022/04/19 03:56:03;;;;;;;5.22;3.70;;;;;;;7.04;56.62;99445.28;4331563;32;32793;-84
2022/04/19 03:58:34;;;;;;;7.05;4.40;;;;;;;6.89;57.00;99450.13;4356766;32;34035;-84
2022/04/19 04:01:03;;;;;;;7.80;4.68;;;;;;;7.11;56.36;99447.59;4332310;32;34094;-83
2022/04/19 04:03:34;;;;;;;7.40;4.80;;;;;;;6.72;57.80;99452.47;4354816;32;33065;-83
2022/04/19 04:06:02;;;;;;;10.32;5.53;;;;;;;6.62;58.55;99437.94;4354784;32;32928;-83
2022/04/19 04:08:31;;;;;;;7.93;4.78;;;;;;;6.96;57.35;99442.03;4355376;32;33694;-83
2022/04/19 04:11:00;;;;;;;9.52;5.28;;;;;;;6.77;57.85;99440.03;4354675;32;33795;-83
2022/04/19 04:13:28;;;;;;;7.45;5.18;;;;;;;6.74;58.15;99441.91;4353748;32;34306;-83
2022/04/19 04:15:57;;;;;;;7.47;4.75;;;;;;;6.54;58.98;99453.94;4343102;32;32830;-83
2022/04/19 04:18:26;;;;;;;6.97;4.80;;;;;;;6.70;58.53;99441.19;4365395;32;34682;-83
2022/04/19 04:20:54;;;;;;;6.35;4.40;;;;;;;6.81;58.17;99443.44;4355593;32;32871;-83
2022/04/19 04:23:22;;;;;;;7.82;5.25;;;;;;;6.90;57.63;99440.50;4351294;32;33873;-84
2022/04/19 04:25:51;;;;;;;8.75;5.20;;;;;;;6.79;57.93;99450.47;4354983;32;33509;-84
2022/04/19 04:28:19;;;;;;;12.65;5.65;;;;;;;7.02;56.98;99447.06;4355386;32;33621;-84
2022/04/19 04:30:56;;;;;;;7.85;5.30;;;;;;;7.04;56.89;99451.38;4354666;32;34643;-85
2022/04/19 04:33:27;;;;;;;8.95;5.93;;;;;;;6.90;57.62;99454.47;4338684;32;33937;-86
2022/04/19 04:36:00;;;;;;;8.65;5.37;;;;;;;6.79;58.51;99451.38;4332922;32;32601;-85
2022/04/19 04:38:30;;;;;;;8.75;5.57;;;;;;;6.71;58.94;99456.00;4353979;32;33149;-86
2022/04/19 04:41:02;;;;;;;7.80;4.72;;;;;;;6.77;59.04;99454.94;4342971;32;33669;-83
2022/04/19 04:43:38;;;;;;;8.95;5.25;;;;;;;6.78;59.37;99451.41;4353867;32;32057;-84
2022/04/19 04:51:46;;;;;;;9.57;5.30;;;;;;;6.96;58.17;99452.53;4356541;32;33584;-84
2022/04/19 04:54:14;;;;;;;11.38;6.07;;;;;;;6.77;59.28;99452.31;4343410;32;31944;-84
2022/04/19 04:56:42;;;;;;;12.05;6.03;;;;;;;6.79;59.45;99456.62;4354452;32;32366;-84
2022/04/19 04:59:10;;;;;;;12.23;6.55;;;;;;;7.05;58.46;99452.22;4354571;32;31812;-84
2022/04/19 05:01:39;;;;;;;11.43;6.05;;;;;;;6.93;59.26;99466.63;4328872;32;32950;-84
2022/04/19 05:04:07;;;;;;;11.88;7.60;;;;;;;7.13;58.82;99455.44;4351891;32;33105;-83
2022/04/19 05:06:36;;;;;;;11.80;8.15;;;;;;;7.16;58.39;99460.56;4327649;32;33910;-84
2022/04/19 05:09:05;;;;;;;14.85;7.70;;;;;;;7.03;59.08;99464.56;4341948;32;32607;-83
2022/04/19 05:11:33;;;;;;;12.43;7.25;;;;;;;7.20;58.46;99456.94;4362151;32;34260;-84
2022/04/19 05:14:04;;;;;;;17.23;8.98;;;;;;;7.18;58.98;99454.38;4339650;33;32980;-84
2022/04/19 05:16:35;;;;;;;23.23;10.35;;;;;;;7.27;58.65;99457.59;4338591;32;33230;-84
2022/04/19 05:19:05;;;;;;;23.80;11.07;;;;;;;7.10;59.25;99466.06;4335244;32;33172;-83
2022/04/19 05:21:38;;;;;;;16.48;9.35;;;;;;;7.64;56.61;99457.09;4350020;32;33404;-84
2022/04/19 05:24:09;;;;;;;19.98;8.85;;;;;;;7.68;55.97;99459.53;4347999;32;33899;-84
2022/04/19 05:26:38;;;;;;;22.37;7.45;;;;;;;7.27;57.68;99453.19;4349095;32;32877;-83
2022/04/19 05:29:06;;;;;;;12.70;7.10;;;;;;;7.39;57.57;99460.63;4353042;32;33163;-84
2022/04/19 05:31:34;;;;;;;12.68;7.30;;;;;;;7.42;57.34;99463.16;4340214;32;33687;-83
2022/04/19 05:34:04;;;;;;;10.02;6.60;;;;;;;7.72;56.18;99457.66;4350079;32;33440;-83
2022/04/19 05:36:32;;;;;;;11.38;6.40;;;;;;;7.70;55.98;99464.75;4349819;32;34804;-84
2022/04/19 05:39:05;;;;;;;11.52;6.50;;;;;;;7.53;56.23;99456.62;4348072;32;33997;-84
2022/04/19 05:41:37;;;;;;;8.85;5.22;;;;;;;7.51;56.78;99458.47;4349011;32;32042;-84
2022/04/19 05:44:07;;;;;;;10.88;6.28;;;;;;;7.66;56.75;99455.28;4351285;32;33115;-84
2022/04/19 05:46:42;;;;;;;9.52;6.03;;;;;;;7.85;56.65;99461.56;4338820;32;34480;-84
2022/04/19 05:49:21;;;;;;;10.10;6.40;;;;;;;8.30;53.99;99462.44;4349102;32;32082;-84
2022/04/19 05:51:51;;;;;;;12.25;5.95;;;;;;;8.51;53.15;99460.78;4348787;32;34205;-84
2022/04/19 05:54:21;;;;;;;9.38;5.53;;;;;;;8.36;53.94;99465.75;4348809;32;33009;-84
2022/04/19 05:56:57;;;;;;;14.80;6.85;;;;;;;7.95;56.28;99452.37;4350795;32;33644;-84
2022/04/19 05:59:26;;;;;;;11.65;6.25;;;;;;;8.29;55.59;99458.97;4333013;33;33033;-84
2022/04/19 06:04:52;;;;;;;11.05;5.90;;;;;;;8.50;54.21;99459.91;4349941;32;32433;-84
2022/04/19 06:07:30;;;;;;;7.15;5.45;;;;;;;8.90;53.20;99459.13;4349131;32;33244;-84
2022/04/19 06:09:59;;;;;;;9.43;5.95;;;;;;;8.75;54.04;99459.75;4341952;32;33890;-84
2022/04/19 06:12:29;;;;;;;7.68;5.03;;;;;;;9.12;54.17;99458.22;4351137;32;35881;-84
2022/04/19 06:15:06;;;;;;;9.38;4.57;;;;;;;8.91;54.70;99445.03;4353943;32;34912;-84
2022/04/19 06:17:35;;;;;;;6.30;4.07;;;;;;;9.23;53.39;99451.53;4351715;32;33657;-84
2022/04/19 06:20:06;;;;;;;4.80;3.55;;;;;;;9.16;51.48;99454.50;4342146;32;32755;-84
2022/04/19 06:22:34;;;;;;;5.53;4.20;;;;;;;9.26;50.80;99445.28;4362491;32;34437;-84
2022/04/19 06:25:03;;;;;;;7.15;3.72;;;;;;;9.47;50.73;99446.97;4349479;32;32547;-83
2022/04/19 06:27:33;;;;;;;7.07;3.65;;;;;;;9.60;50.80;99446.41;4351223;32;33598;-84
2022/04/19 06:30:04;;;;;;;7.37;4.85;;;;;;;9.66;49.28;99433.81;4361367;32;33788;-84
2022/04/19 06:32:38;;;;;;;10.45;4.10;;;;;;;9.55;49.47;99444.00;4350546;32;32949;-83
2022/04/19 06:35:24;;;;;;;5.93;3.87;;;;;;;9.84;49.31;99434.75;4355620;32;33489;-84
2022/04/19 06:37:55;;;;;;;5.07;3.87;;;;;;;9.74;49.10;99438.75;4330251;32;32624;-84
2022/04/19 06:40:30;;;;;;;6.00;4.05;;;;;;;10.04;49.07;99432.97;4351094;32;33630;-85
2022/04/19 06:43:02;;;;;;;5.82;4.35;;;;;;;10.25;49.39;99434.59;4355615;32;34764;-84
2022/04/19 06:45:37;;;;;;;;;;;;;;;10.16;47.79;99435.00;4356005;32;33567;-85
2022/04/19 06:48:09;;;;;;;7.95;4.07;;;;;;;10.59;46.89;99435.59;4354516;32;32107;-84
2022/04/19 06:50:42;;;;;;;6.70;4.05;;;;;;;10.63;46.70;99439.78;4352732;32;33125;-85
2022/04/19 06:53:36;;;;;;;5.03;3.78;;;;;;;10.49;46.96;99436.06;4352946;32;33636;-85
2022/04/19 06:56:14;;;;;;;9.07;4.93;;;;;;;10.88;45.31;99432.34;4363594;32;32687;-84
2022/04/19 06:58:44;;;;;;;7.82;4.50;;;;;;;10.39;46.77;99439.19;4338577;32;32660;-84
2022/04/19 07:01:14;;;;;;;8.38;4.32;;;;;;;10.75;46.91;99425.97;4354092;32;34134;-84
2022/04/19 07:03:43;;;;;;;7.70;4.50;;;;;;;10.27;47.96;99443.31;4353056;32;31963;-85
2022/04/19 07:06:15;;;;;;;8.30;4.47;;;;;;;10.54;46.85;99429.66;4354420;32;34171;-84
2022/04/19 07:08:44;;;;;;;9.98;4.55;;;;;;;10.99;46.56;99424.72;4352641;32;35242;-85
2022/04/19 07:11:16;;;;;;;8.60;4.97;;;;;;;10.99;45.23;99426.50;4354509;32;33382;-85
2022/04/19 07:13:49;;;;;;;11.00;5.00;;;;;;;10.91;44.85;99424.25;4340647;32;34693;-85
2022/04/19 07:16:25;;;;;;;8.20;4.53;;;;;;;11.25;45.20;99419.88;4354791;32;33240;-85
2022/04/19 07:18:56;;;;;;;6.95;4.60;;;;;;;10.88;44.22;99424.44;4352233;32;33594;-85
2022/04/19 07:30:10;;;;;;;7.90;3.87;;;;;;;11.27;45.26;99425.94;4363986;32;33582;-84
2022/04/19 07:32:48;;;;;;;6.78;3.42;;;;;;;11.53;42.26;99419.25;4363433;32;34682;-85
2022/04/19 07:35:20;;;;;;;7.87;4.32;;;;;;;11.70;44.17;99419.22;4354298;32;34008;-85
2022/04/19 07:43:22;;;;;;;5.78;3.58;;;;;;;12.01;42.02;99426.38;4361250;32;36060;-85
2022/04/19 07:45:55;;;;;;;6.32;3.87;;;;;;;11.74;41.22;99426.03;4353613;32;31639;-84
2022/04/19 07:48:25;;;;;;;7.87;3.80;;;;;;;12.00;41.56;99421.13;4351066;32;32768;-85
2022/04/19 07:50:55;;;;;;;7.87;3.45;;;;;;;12.19;40.71;99428.91;4354988;32;32672;-85
2022/04/19 07:53:27;;;;;;;6.20;3.42;;;;;;;12.33;40.40;99426.31;4353254;32;33757;-85
2022/04/19 07:58:45;;;;;;;6.22;3.42;;;;;;;12.45;41.47;99415.06;4344810;32;31805;-85
2022/04/19 08:01:20;;;;;;;6.25;3.28;;;;;;;12.36;40.15;99420.88;4352130;32;32748;-85
2022/04/19 08:03:54;;;;;;;4.93;3.22;;;;;;;12.60;39.51;99412.47;4343726;32;33068;-85
2022/04/19 08:06:28;;;;;;;4.32;2.90;;;;;;;12.97;39.53;99413.78;4362135;32;33559;-85
2022/04/19 08:09:08;;;;;;;7.40;3.08;;;;;;;12.85;40.33;99411.88;4356165;32;34775;-85
2022/04/19 08:11:39;;;;;;;3.40;3.03;;;;;;;13.11;38.92;99418.28;4366269;32;33985;-85
2022/04/19 08:14:09;;;;;;;5.12;3.40;;;;;;;12.95;37.95;99429.75;4351202;32;34875;-85
2022/04/19 08:16:52;;;;;;;4.15;3.20;;;;;;;13.50;37.60;99415.88;4351165;32;34652;-85
2022/04/19 08:19:23;;;;;;;;;;;;;;;12.47;39.40;99429.03;4352974;32;32760;-85
2022/04/19 08:21:55;;;;;;;4.20;3.47;;;;;;;12.69;38.92;99425.16;4355204;32;33823;-85
2022/04/19 08:27:07;;;;;;;3.53;2.80;;;;;;;12.34;38.38;99422.72;4352709;32;33083;-85
2022/04/19 08:29:43;;;;;;;5.28;3.85;;;;;;;12.52;38.65;99416.38;4357757;32;34320;-85
2022/04/19 08:32:19;;;;;;;4.20;3.50;;;;;;;11.88;38.42;99430.63;4364927;32;32894;-85
2022/04/19 08:34:49;;;;;;;4.75;3.58;;;;;;;12.45;38.54;99415.06;4352790;32;34496;-85
2022/04/19 08:37:20;;;;;;;3.90;3.30;;;;;;;13.04;40.73;99418.62;4349665;32;32916;-85
2022/04/19 08:39:50;;;;;;;6.60;3.50;;;;;;;12.90;37.95;99415.09;4357262;32;33668;-85
2022/04/19 08:42:29;;;;;;;7.15;2.78;;;;;;;13.08;37.67;99400.75;4360087;32;34705;-85
2022/04/19 08:45:04;;;;;;;3.57;3.27;;;;;;;13.35;37.69;99400.91;4341930;32;34093;-85
2022/04/19 08:47:39;;;;;;;5.62;3.22;;;;;;;13.24;37.50;99408.66;4351358;32;33096;-85
2022/04/19 08:50:16;;;;;;;4.87;3.50;;;;;;;12.61;38.20;99406.22;4366705;32;33175;-85
2022/04/19 08:58:32;;;;;;;5.80;2.90;;;;;;;13.01;37.40;99391.47;4367508;32;33605;-83
2022/04/19 09:01:02;;;;;;;3.53;3.17;;;;;;;13.51;36.88;99392.84;4367799;32;34137;-85
2022/04/19 09:03:31;;;;;;;7.62;3.42;;;;;;;13.94;34.25;99385.69;4329080;32;33122;-84
2022/04/19 09:09:12;;;;;;;4.12;2.80;;;;;;;13.42;34.84;99385.47;4351949;32;32640;-83
2022/04/19 09:11:42;;;;;;;6.05;3.40;;;;;;;13.02;38.57;99393.16;4362154;32;34511;-83
2022/04/19 09:14:14;;;;;;;3.92;2.70;;;;;;;12.99;38.25;99388.03;4357057;32;33835;-83
2022/04/19 09:16:46;;;;;;;4.25;2.90;;;;;;;13.35;37.37;99385.00;4343173;32;34315;-83
2022/04/19 09:19:31;;;;;;;5.47;3.00;;;;;;;13.52;35.96;99382.13;4352122;32;32938;-83
2022/04/19 09:24:36;;;;;;;4.65;3.72;;;;;;;13.08;34.39;99383.03;4355004;32;33950;-83
2022/04/19 09:27:32;;;;;;;3.25;2.67;;;;;;;13.22;34.38;99395.50;4356494;32;33617;-82
2022/04/19 09:30:19;;;;;;;5.47;3.65;;;;;;;13.07;33.75;99385.78;4353197;32;32259;-82
2022/04/19 09:33:05;;;;;;;6.03;3.22;;;;;;;13.89;35.14;99378.97;4370199;32;34088;-83
2022/04/19 09:35:38;;;;;;;6.25;3.47;;;;;;;13.74;33.94;99386.09;4339291;32;34648;-83
2022/04/19 09:38:08;;;;;;;3.20;2.90;;;;;;;14.20;33.73;99372.53;4353382;32;33834;-83
2022/04/19 09:40:47;;;;;;;4.45;3.28;;;;;;;14.18;32.36;99371.78;4354852;32;33588;-83
2022/04/19 09:43:37;;;;;;;3.03;2.72;;;;;;;14.69;31.44;99367.50;4351148;32;33461;-83
2022/04/19 09:46:08;;;;;;;6.75;3.53;;;;;;;14.14;31.88;99372.91;4353706;32;33477;-82
2022/04/19 09:48:44;;;;;;;3.20;2.53;;;;;;;13.92;31.23;99369.00;4361000;32;33606;-82
2022/04/19 09:51:15;;;;;;;6.10;3.40;;;;;;;14.00;32.76;99368.50;4353656;32;32728;-84
2022/04/19 09:53:47;;;;;;;3.87;2.93;;;;;;;13.99;34.27;99364.16;4356451;32;34484;-85
2022/04/19 09:56:19;;;;;;;5.15;3.42;;;;;;;13.32;32.59;99369.25;4346294;32;32784;-85
2022/04/19 09:59:08;;;;;;;3.47;2.97;;;;;;;13.47;33.32;99368.31;4350534;32;34212;-84
2022/04/19 10:10:16;;;;;;;3.55;3.20;;;;;;;13.26;35.18;99374.94;4356139;32;35486;-85
2022/04/19 10:12:46;;;;;;;5.65;3.65;;;;;;;13.57;34.42;99368.59;4339359;32;32295;-84
2022/04/19 10:15:16;;;;;;;6.68;3.58;;;;;;;13.77;33.24;99362.03;4353831;32;33199;-85
2022/04/19 10:17:46;;;;;;;3.45;2.83;;;;;;;13.51;34.68;99363.66;4356668;32;34193;-85
2022/04/19 10:20:16;;;;;;;5.50;3.92;;;;;;;14.02;34.59;99363.97;4354058;32;33974;-85
2022/04/19 10:22:49;;;;;;;5.45;3.45;;;;;;;14.14;36.36;99359.63;4357436;32;34467;-85
2022/04/19 10:25:40;;;;;;;4.72;3.15;;;;;;;14.61;33.97;99356.53;4355637;32;32826;-85
2022/04/19 10:28:12;;;;;;;6.85;3.78;;;;;;;14.69;31.82;99348.91;4353960;32;33982;-85
2022/04/19 10:30:53;;;;;;;7.30;3.92;;;;;;;14.28;32.64;99343.66;4367513;32;32972;-84
2022/04/19 10:33:44;;;;;;;4.82;3.75;;;;;;;14.89;33.27;99336.91;4339692;32;33090;-84
2022/04/19 10:36:16;;;;;;;5.70;4.00;;;;;;;14.99;33.98;99350.41;4367844;32;33208;-85
2022/04/19 10:38:46;;;;;;;3.97;3.53;;;;;;;15.03;30.72;99334.12;4348978;32;33709;-84
2022/04/19 10:41:52;;;;;;;4.75;3.60;;;;;;;14.67;31.92;99339.31;4364846;32;34054;-85
2022/04/19 10:44:43;;;;;;;4.70;3.40;;;;;;;14.43;32.73;99342.66;4345933;32;32555;-84
2022/04/19 10:47:20;;;;;;;4.12;3.28;;;;;;;14.44;32.31;99347.00;4368399;32;33678;-84
2022/04/19 10:49:57;;;;;;;4.15;3.00;;;;;;;14.03;32.86;99339.09;4365508;32;34055;-84
2022/04/19 10:52:42;;;;;;;4.20;3.40;;;;;;;13.81;33.90;99348.47;4367384;32;33313;-84
2022/04/19 10:55:21;;;;;;;4.32;3.30;;;;;;;13.49;33.90;99353.16;4356298;32;33612;-84
2022/04/19 11:00:47;;;;;;;4.55;3.28;;;;;;;13.41;33.67;99358.09;4354843;32;33946;-84
2022/04/19 11:03:47;;;;;;;4.28;3.30;;;;;;;12.97;35.05;99352.84;4358570;32;34536;-85
2022/04/19 11:06:33;;;;;;;4.87;3.80;;;;;;;12.63;35.95;99354.88;4367581;32;33779;-84
2022/04/19 11:09:15;;;;;;;6.28;3.30;;;;;;;12.49;37.32;99357.47;4354116;32;32661;-85
2022/04/19 11:12:06;;;;;;;4.55;3.35;;;;;;;12.39;38.41;99357.16;4367989;32;34984;-84
2022/04/19 11:14:43;;;;;;;4.68;3.30;;;;;;;12.46;40.18;99362.94;4355615;32;34800;-85
2022/04/19 11:17:23;;;;;;;3.90;2.90;;;;;;;12.48;40.49;99359.25;4352036;32;32718;-84
2022/04/19 11:20:14;;;;;;;4.40;3.28;;;;;;;12.44;41.07;99357.75;4354133;32;33404;-84
2022/04/19 11:22:51;;;;;;;4.68;3.03;;;;;;;12.47;39.75;99369.94;4352789;32;33469;-85
2022/04/19 11:25:37;;;;;;;5.53;3.72;;;;;;;12.35;40.56;99371.50;4344512;32;34135;-84
2022/04/19 11:28:11;;;;;;;6.75;3.35;;;;;;;12.41;42.17;99365.84;4363436;32;33849;-84
2022/04/19 11:30:44;;;;;;;4.22;3.35;;;;;;;12.54;41.67;99372.16;4361721;32;33073;-84
2022/04/19 11:33:41;;;;;;;4.07;3.15;;;;;;;12.77;40.59;99375.22;4355149;32;33903;-84
2022/04/19 11:36:18;;;;;;;5.97;3.00;;;;;;;12.78;39.39;99376.94;4354623;32;34384;-85
2022/04/19 11:38:49;;;;;;;3.53;3.22;;;;;;;12.63;40.43;99385.78;4359506;32;30923;-84
2022/04/19 11:47:11;;;;;;;4.80;3.65;;;;;;;12.28;42.69;99399.25;4355578;32;33739;-84
2022/04/19 11:49:43;;;;;;;7.82;4.95;;;;;;;12.27;44.28;99395.78;4357009;32;33606;-84
2022/04/19 11:52:12;;;;;;;;;;;;;;;11.96;47.28;99398.44;4341292;32;32170;-85
2022/04/19 11:54:41;;;;;;;6.10;3.55;;;;;;;12.15;47.59;99392.94;4358456;32;34594;-84
2022/04/19 11:57:15;;;;;;;7.80;4.30;;;;;;;12.36;44.94;99393.53;4356530;32;33755;-84
2022/04/19 12:02:28;;;;;;;4.75;3.87;;;;;;;12.30;46.98;99415.94;4355914;32;31936;-84
2022/04/19 12:05:03;;;;;;;5.43;4.40;;;;;;;12.22;46.93;99412.84;4356909;32;33962;-84
2022/04/19 12:07:31;;;;;;;5.55;4.20;;;;;;;12.12;47.38;99406.37;4342111;32;33356;-84
2022/04/19 12:09:59;;;;;;;5.45;3.90;;;;;;;11.98;47.50;99415.09;4343276;32;33078;-84
2022/04/19 12:12:34;;;;;;;7.95;4.43;;;;;;;11.73;48.35;99418.19;4356382;32;33357;-84
2022/04/19 12:15:05;;;;;;;5.72;4.95;;;;;;;11.63;50.22;99411.69;4352684;32;32797;-84
2022/04/19 12:17:45;;;;;;;5.87;3.93;;;;;;;11.66;50.31;99414.16;4354351;32;32972;-84
2022/04/19 12:20:18;;;;;;;7.40;4.40;;;;;;;11.72;48.29;99414.69;4341947;32;32746;-84
2022/04/19 12:23:20;;;;;;;5.22;4.45;;;;;;;11.52;49.21;99407.81;4354009;32;35105;-86
2022/04/19 12:26:08;;;;;;;6.68;4.85;;;;;;;11.46;49.76;99412.59;4354871;32;33761;-84
2022/04/19 12:28:42;;;;;;;5.75;4.82;;;;;;;11.41;48.73;99415.50;4354508;32;33631;-84
2022/04/19 12:31:32;;;;;;;8.65;5.20;;;;;;;11.23;49.78;99416.47;4343657;32;32404;-84
2022/04/19 12:34:02;;;;;;;6.32;4.85;;;;;;;11.00;48.81;99415.84;4365017;32;32384;-84
2022/04/19 12:39:23;;;;;;;5.80;4.55;;;;;;;11.15;50.86;99406.28;4367337;32;34457;-84
2022/04/19 12:42:07;;;;;;;5.62;4.32;;;;;;;11.02;49.78;99414.00;4353945;32;33025;-84
2022/04/19 12:45:02;;;;;;;8.70;5.60;;;;;;;11.02;50.20;99414.00;4358777;32;33738;-84
2022/04/19 12:47:37;;;;;;;7.50;4.32;;;;;;;11.06;50.36;99411.19;4359765;32;32800;-84
2022/04/19 12:50:13;;;;;;;5.93;4.93;;;;;;;10.95;51.51;99412.59;4341606;32;33611;-84
2022/04/19 12:52:44;;;;;;;6.60;4.87;;;;;;;10.94;51.05;99415.34;4353446;32;33590;-84
2022/04/19 12:58:44;;;;;;;6.43;4.97;;;;;;;11.07;50.29;99410.28;4349991;32;32882;-84
2022/04/19 13:01:25;;;;;;;6.40;4.57;;;;;;;10.80;51.70;99413.38;4340368;32;33295;-84
2022/04/19 13:04:01;;;;;;;8.07;5.05;;;;;;;10.81;50.49;99415.09;4356380;32;32379;-84
2022/04/19 13:12:19;;;;;;;5.70;4.20;;;;;;;11.14;50.30;99411.66;4295606;32;2001116;-84
2022/04/19 13:14:50;;;;;;;6.22;4.45;;;;;;;11.40;50.31;99403.22;4366131;32;32685;-84
2022/04/19 13:17:34;;;;;;;6.30;4.72;;;;;;;11.61;48.33;99406.47;4338924;32;32325;-84
2022/04/19 13:20:07;;;;;;;5.32;4.40;;;;;;;11.50;48.95;99400.94;4339806;32;34205;-84